< Typhoon 197822 1978 Season Typhoon 197824 >
Typhoon 197823 (NINA)
General InformationTrack Information on Google MapsDetailed Wind Information || Disaster Info.ResourceGoogle EarthGE AnimationAtom FeedGeoJSON
Detalied Best Track (Time Zone = UTC)
Year Month Day Hour Lat. Long. Pressure (hPa) Wind (kt) Class Image Chart
1978 10 5 18 14.0 142.0 1002 0 2 -- Chart
1978 10 6 00 14.0 140.0 1002 0 2 -- Chart
1978 10 6 06 14.5 138.5 1002 0 2 -- Chart
1978 10 6 12 15.0 137.0 1000 0 2 -- Chart
1978 10 6 18 15.5 135.5 1000 0 2 -- Chart
1978 10 7 00 16.0 134.0 1000 0 2 -- Chart
1978 10 7 06 16.0 132.5 998 0 2 -- Chart
1978 10 7 12 15.8 131.0 998 0 2 -- Chart
1978 10 7 18 15.4 130.0 996 0 2 -- Chart
1978 10 8 00 15.3 129.2 992 35 3 -- Chart
1978 10 8 06 15.2 128.0 990 35 3 -- Chart
1978 10 8 12 14.8 126.9 985 35 3 -- Chart
1978 10 8 18 14.5 125.7 985 45 3 -- Chart
1978 10 9 00 14.8 124.8 985 45 3 -- Chart
1978 10 9 06 15.0 123.8 980 45 3 -- Chart
1978 10 9 12 15.3 122.8 980 50 4 -- Chart
1978 10 9 18 15.3 121.5 980 50 4 -- Chart
1978 10 10 00 15.0 120.0 980 50 4 -- Chart
1978 10 10 06 15.0 119.6 980 60 4 -- Chart
1978 10 10 12 15.0 119.0 980 60 4 -- Chart
1978 10 10 18 15.1 118.4 975 60 4 -- Chart
1978 10 11 00 15.2 118.0 975 60 4 -- Chart
1978 10 11 06 15.3 117.6 985 60 4 -- Chart
1978 10 11 12 15.4 117.4 985 60 4 -- Chart
1978 10 11 18 15.5 117.0 985 55 4 -- Chart
1978 10 12 00 15.5 116.7 985 60 4 -- Chart
1978 10 12 06 15.5 116.4 985 60 4 -- Chart
1978 10 12 12 15.4 116.0 985 60 4 -- Chart
1978 10 12 18 15.0 116.3 985 60 4 -- Chart
1978 10 13 00 15.3 116.5 985 60 4 -- Chart
1978 10 13 06 15.7 116.4 985 55 4 -- Chart
1978 10 13 12 16.1 115.9 985 55 4 -- Chart
1978 10 13 18 16.4 115.4 990 45 3 -- Chart
1978 10 14 00 16.6 115.1 990 45 3 -- Chart
1978 10 14 06 17.1 114.7 990 45 3 -- Chart
1978 10 14 12 17.5 114.2 990 45 3 -- Chart
1978 10 14 18 17.9 113.8 990 45 3 -- Chart
1978 10 15 00 18.3 113.2 985 45 3 -- Chart
1978 10 15 06 19.0 112.5 985 45 3 -- Chart
1978 10 15 12 19.5 112.0 990 45 3 -- Chart
1978 10 15 18 19.8 112.1 990 45 3 -- Chart
1978 10 16 00 20.3 112.2 990 35 3 -- Chart
1978 10 16 06 20.6 112.3 992 35 3 -- Chart
1978 10 16 12 21.1 112.4 994 35 3 -- Chart
1978 10 16 18 21.3 112.7 1000 35 3 -- Chart
1978 10 17 00 21.5 110.5 1012 0 2 -- Chart
1978 10 17 06 21.7 110.2 1012 0 2 -- Chart
1978 10 17 12 21.8 110.0 1012 0 2 -- Chart
Japan Meteorological Agency Best Track Data | Correction Date : 1992-10-21
< Typhoon 197822 1978 Season Typhoon 197824 >

Help